sensor_id;sensor_type;location;lat;lon;timestamp;P1;durP1;ratioP1;P2;durP2;ratioP2
35243;SDS011;37916;52.160;21.066;2024-03-17T00:00:06;8.63;;;1.30;;
35243;SDS011;37916;52.160;21.066;2024-03-17T00:10:10;5.03;;;1.23;;
35243;SDS011;37916;52.160;21.066;2024-03-17T00:20:11;5.72;;;1.90;;
35243;SDS011;37916;52.160;21.066;2024-03-17T00:30:19;6.93;;;1.35;;
35243;SDS011;37916;52.160;21.066;2024-03-17T00:40:20;8.38;;;1.73;;
35243;SDS011;37916;52.160;21.066;2024-03-17T00:50:21;8.32;;;1.48;;
35243;SDS011;37916;52.160;21.066;2024-03-17T01:00:22;5.82;;;1.40;;
35243;SDS011;37916;52.160;21.066;2024-03-17T01:10:23;6.30;;;1.38;;
35243;SDS011;37916;52.160;21.066;2024-03-17T01:20:24;9.13;;;1.60;;
35243;SDS011;37916;52.160;21.066;2024-03-17T01:30:25;11.98;;;1.58;;
35243;SDS011;37916;52.160;21.066;2024-03-17T01:40:26;10.10;;;1.38;;
35243;SDS011;37916;52.160;21.066;2024-03-17T02:00:31;8.25;;;1.05;;
35243;SDS011;37916;52.160;21.066;2024-03-17T02:10:34;7.80;;;1.13;;
35243;SDS011;37916;52.160;21.066;2024-03-17T02:20:35;14.65;;;2.55;;
35243;SDS011;37916;52.160;21.066;2024-03-17T02:30:54;10.93;;;1.75;;
35243;SDS011;37916;52.160;21.066;2024-03-17T02:40:55;7.93;;;1.65;;
35243;SDS011;37916;52.160;21.066;2024-03-17T02:50:56;8.55;;;1.27;;
35243;SDS011;37916;52.160;21.066;2024-03-17T03:00:57;8.80;;;1.77;;
35243;SDS011;37916;52.160;21.066;2024-03-17T03:10:59;14.55;;;1.65;;
35243;SDS011;37916;52.160;21.066;2024-03-17T03:21:00;11.57;;;1.83;;
35243;SDS011;37916;52.160;21.066;2024-03-17T03:31:01;11.15;;;1.67;;
35243;SDS011;37916;52.160;21.066;2024-03-17T03:41:09;12.95;;;2.00;;
35243;SDS011;37916;52.160;21.066;2024-03-17T03:51:10;11.57;;;2.13;;
35243;SDS011;37916;52.160;21.066;2024-03-17T04:01:11;13.32;;;2.92;;
35243;SDS011;37916;52.160;21.066;2024-03-17T04:11:12;9.25;;;2.03;;
35243;SDS011;37916;52.160;21.066;2024-03-17T04:21:13;9.32;;;2.17;;
35243;SDS011;37916;52.160;21.066;2024-03-17T04:31:14;12.00;;;2.35;;
35243;SDS011;37916;52.160;21.066;2024-03-17T04:41:16;12.38;;;2.08;;
35243;SDS011;37916;52.160;21.066;2024-03-17T04:51:17;11.77;;;2.38;;
35243;SDS011;37916;52.160;21.066;2024-03-17T05:01:18;9.40;;;2.08;;
35243;SDS011;37916;52.160;21.066;2024-03-17T05:11:19;7.63;;;1.83;;
35243;SDS011;37916;52.160;21.066;2024-03-17T05:21:21;10.98;;;1.88;;
35243;SDS011;37916;52.160;21.066;2024-03-17T05:31:26;6.72;;;2.40;;
35243;SDS011;37916;52.160;21.066;2024-03-17T05:41:27;8.98;;;2.63;;
35243;SDS011;37916;52.160;21.066;2024-03-17T05:51:28;11.10;;;2.67;;
35243;SDS011;37916;52.160;21.066;2024-03-17T06:01:29;11.82;;;3.08;;
35243;SDS011;37916;52.160;21.066;2024-03-17T06:11:30;7.68;;;2.10;;
35243;SDS011;37916;52.160;21.066;2024-03-17T06:21:34;7.45;;;2.47;;
35243;SDS011;37916;52.160;21.066;2024-03-17T06:31:35;7.38;;;2.00;;
35243;SDS011;37916;52.160;21.066;2024-03-17T06:41:36;8.13;;;1.92;;
35243;SDS011;37916;52.160;21.066;2024-03-17T06:51:37;8.93;;;2.00;;
35243;SDS011;37916;52.160;21.066;2024-03-17T07:01:38;6.78;;;1.70;;
35243;SDS011;37916;52.160;21.066;2024-03-17T07:11:39;3.85;;;1.38;;
35243;SDS011;37916;52.160;21.066;2024-03-17T07:21:40;7.97;;;1.38;;
35243;SDS011;37916;52.160;21.066;2024-03-17T07:31:42;6.18;;;1.65;;
35243;SDS011;37916;52.160;21.066;2024-03-17T07:41:43;11.40;;;2.20;;
35243;SDS011;37916;52.160;21.066;2024-03-17T07:51:47;7.05;;;1.45;;
35243;SDS011;37916;52.160;21.066;2024-03-17T08:01:51;9.60;;;1.98;;
35243;SDS011;37916;52.160;21.066;2024-03-17T08:11:52;6.78;;;1.55;;
35243;SDS011;37916;52.160;21.066;2024-03-17T08:21:53;4.13;;;1.83;;
35243;SDS011;37916;52.160;21.066;2024-03-17T08:31:54;12.18;;;1.90;;
35243;SDS011;37916;52.160;21.066;2024-03-17T08:41:55;9.63;;;1.60;;
35243;SDS011;37916;52.160;21.066;2024-03-17T08:51:59;9.27;;;2.27;;
35243;SDS011;37916;52.160;21.066;2024-03-17T09:02:00;8.93;;;2.45;;
35243;SDS011;37916;52.160;21.066;2024-03-17T09:12:01;8.38;;;2.42;;
35243;SDS011;37916;52.160;21.066;2024-03-17T09:22:03;5.75;;;1.98;;
35243;SDS011;37916;52.160;21.066;2024-03-17T09:32:05;7.53;;;1.95;;
35243;SDS011;37916;52.160;21.066;2024-03-17T09:42:07;5.75;;;1.70;;
35243;SDS011;37916;52.160;21.066;2024-03-17T10:14:04;8.13;;;1.60;;
35243;SDS011;37916;52.160;21.066;2024-03-17T10:24:09;3.17;;;1.00;;
35243;SDS011;37916;52.160;21.066;2024-03-17T10:34:12;3.03;;;1.02;;
35243;SDS011;37916;52.160;21.066;2024-03-17T10:44:16;6.25;;;1.60;;
35243;SDS011;37916;52.160;21.066;2024-03-17T10:54:20;5.28;;;1.60;;
35243;SDS011;37916;52.160;21.066;2024-03-17T11:04:26;5.47;;;1.83;;
35243;SDS011;37916;52.160;21.066;2024-03-17T11:14:31;4.90;;;1.58;;
35243;SDS011;37916;52.160;21.066;2024-03-17T11:45:23;5.65;;;1.92;;
35243;SDS011;37916;52.160;21.066;2024-03-17T11:55:26;2.33;;;1.07;;
35243;SDS011;37916;52.160;21.066;2024-03-17T12:05:28;1.95;;;0.80;;
35243;SDS011;37916;52.160;21.066;2024-03-17T12:15:31;1.50;;;0.60;;
35243;SDS011;37916;52.160;21.066;2024-03-17T12:25:32;2.35;;;0.80;;
35243;SDS011;37916;52.160;21.066;2024-03-17T12:35:33;1.42;;;0.85;;
35243;SDS011;37916;52.160;21.066;2024-03-17T12:45:34;1.48;;;0.80;;
35243;SDS011;37916;52.160;21.066;2024-03-17T12:55:53;1.47;;;0.70;;
35243;SDS011;37916;52.160;21.066;2024-03-17T13:06:21;1.88;;;1.10;;
35243;SDS011;37916;52.160;21.066;2024-03-17T13:16:35;2.53;;;0.88;;
35243;SDS011;37916;52.160;21.066;2024-03-17T13:26:40;1.52;;;0.73;;
35243;SDS011;37916;52.160;21.066;2024-03-17T13:36:52;1.83;;;0.82;;
35243;SDS011;37916;52.160;21.066;2024-03-17T13:46:54;2.13;;;1.00;;
35243;SDS011;37916;52.160;21.066;2024-03-17T13:56:55;1.65;;;1.10;;
35243;SDS011;37916;52.160;21.066;2024-03-17T14:06:58;3.25;;;1.23;;
35243;SDS011;37916;52.160;21.066;2024-03-17T14:16:59;4.57;;;0.90;;
35243;SDS011;37916;52.160;21.066;2024-03-17T14:27:00;1.60;;;0.80;;
35243;SDS011;37916;52.160;21.066;2024-03-17T14:37:05;1.80;;;1.00;;
35243;SDS011;37916;52.160;21.066;2024-03-17T14:47:06;3.35;;;0.93;;
35243;SDS011;37916;52.160;21.066;2024-03-17T15:07:14;2.05;;;1.20;;
35243;SDS011;37916;52.160;21.066;2024-03-17T15:17:16;3.33;;;0.80;;
35243;SDS011;37916;52.160;21.066;2024-03-17T15:27:17;2.15;;;1.13;;
35243;SDS011;37916;52.160;21.066;2024-03-17T15:37:18;3.17;;;1.23;;
35243;SDS011;37916;52.160;21.066;2024-03-17T15:47:19;1.88;;;1.60;;
35243;SDS011;37916;52.160;21.066;2024-03-17T15:57:20;2.67;;;1.48;;
35243;SDS011;37916;52.160;21.066;2024-03-17T16:07:28;2.42;;;1.50;;
35243;SDS011;37916;52.160;21.066;2024-03-17T16:17:32;4.30;;;2.17;;
35243;SDS011;37916;52.160;21.066;2024-03-17T16:27:36;2.38;;;1.60;;
35243;SDS011;37916;52.160;21.066;2024-03-17T16:37:39;3.45;;;2.30;;
35243;SDS011;37916;52.160;21.066;2024-03-17T16:47:43;3.67;;;1.80;;
35243;SDS011;37916;52.160;21.066;2024-03-17T16:57:55;5.75;;;2.13;;
35243;SDS011;37916;52.160;21.066;2024-03-17T17:08:05;4.15;;;2.10;;
35243;SDS011;37916;52.160;21.066;2024-03-17T17:19:00;3.67;;;2.40;;
35243;SDS011;37916;52.160;21.066;2024-03-17T17:29:11;3.97;;;1.80;;
35243;SDS011;37916;52.160;21.066;2024-03-17T17:39:12;2.13;;;1.25;;
35243;SDS011;37916;52.160;21.066;2024-03-17T17:49:18;2.53;;;1.40;;
35243;SDS011;37916;52.160;21.066;2024-03-17T17:59:22;2.95;;;1.83;;
35243;SDS011;37916;52.160;21.066;2024-03-17T18:09:23;5.97;;;2.30;;
35243;SDS011;37916;52.160;21.066;2024-03-17T18:19:29;3.10;;;1.38;;
35243;SDS011;37916;52.160;21.066;2024-03-17T18:29:33;2.95;;;1.50;;
35243;SDS011;37916;52.160;21.066;2024-03-17T18:49:37;2.55;;;1.30;;
35243;SDS011;37916;52.160;21.066;2024-03-17T18:59:41;2.10;;;1.17;;
35243;SDS011;37916;52.160;21.066;2024-03-17T19:19:53;4.80;;;1.40;;
35243;SDS011;37916;52.160;21.066;2024-03-17T19:29:54;2.97;;;1.52;;
35243;SDS011;37916;52.160;21.066;2024-03-17T19:39:57;3.50;;;1.45;;
35243;SDS011;37916;52.160;21.066;2024-03-17T19:49:58;3.08;;;1.25;;
35243;SDS011;37916;52.160;21.066;2024-03-17T19:59:59;4.53;;;1.83;;
35243;SDS011;37916;52.160;21.066;2024-03-17T20:10:00;2.28;;;1.20;;
35243;SDS011;37916;52.160;21.066;2024-03-17T20:20:05;3.38;;;1.30;;
35243;SDS011;37916;52.160;21.066;2024-03-17T20:30:09;4.78;;;1.30;;
35243;SDS011;37916;52.160;21.066;2024-03-17T20:40:10;4.43;;;1.33;;
35243;SDS011;37916;52.160;21.066;2024-03-17T20:50:16;2.30;;;0.82;;
35243;SDS011;37916;52.160;21.066;2024-03-17T21:00:19;2.15;;;0.90;;
35243;SDS011;37916;52.160;21.066;2024-03-17T21:10:20;2.20;;;1.02;;
35243;SDS011;37916;52.160;21.066;2024-03-17T21:20:21;3.53;;;1.50;;
35243;SDS011;37916;52.160;21.066;2024-03-17T21:30:23;3.45;;;1.30;;
35243;SDS011;37916;52.160;21.066;2024-03-17T21:40:25;4.13;;;1.10;;
35243;SDS011;37916;52.160;21.066;2024-03-17T21:50:26;2.28;;;1.00;;
35243;SDS011;37916;52.160;21.066;2024-03-17T22:00:27;2.88;;;1.35;;
35243;SDS011;37916;52.160;21.066;2024-03-17T22:10:29;2.03;;;1.13;;
35243;SDS011;37916;52.160;21.066;2024-03-17T22:20:30;3.15;;;1.40;;
35243;SDS011;37916;52.160;21.066;2024-03-17T22:30:31;3.08;;;1.42;;
35243;SDS011;37916;52.160;21.066;2024-03-17T22:40:32;3.83;;;1.83;;
35243;SDS011;37916;52.160;21.066;2024-03-17T22:50:33;2.58;;;1.13;;
35243;SDS011;37916;52.160;21.066;2024-03-17T23:00:34;2.35;;;0.98;;
35243;SDS011;37916;52.160;21.066;2024-03-17T23:10:58;2.25;;;1.25;;
35243;SDS011;37916;52.160;21.066;2024-03-17T23:21:04;2.92;;;1.15;;
35243;SDS011;37916;52.160;21.066;2024-03-17T23:31:05;3.35;;;1.20;;
35243;SDS011;37916;52.160;21.066;2024-03-17T23:41:06;3.58;;;1.17;;
35243;SDS011;37916;52.160;21.066;2024-03-17T23:51:07;3.75;;;1.17;;
